Time;durP1;ratioP1;P1;durP2;ratioP2;P2;SDS_P1;SDS_P2;PMS_P1;PMS_P2;Temp;Humidity;BMP_temperature;BMP_pressure;BME280_temperature;BME280_humidity;BME280_pressure;Samples;Min_cycle;Max_cycle;Signal;HPM_P1;HPM_P2
2023/09/18 00:01:02;;;;;;;16.33;13.57;;;;;;;18.55;70.31;95100.19;4185792;28;20107;-75
2023/09/18 00:03:03;;;;;;;13.63;12.23;;;;;;;18.55;70.41;95100.19;4195574;28;20053;-76
2023/09/18 00:05:06;;;;;;;16.77;13.07;;;;;;;18.56;70.13;95091.19;4196048;28;20123;-73
2023/09/18 00:07:07;;;;;;;16.02;12.70;;;;;;;18.65;69.72;95086.53;4169980;28;20437;-75
2023/09/18 00:09:11;;;;;;;18.05;14.18;;;;;;;18.67;69.67;95088.00;4166805;28;20319;-75
2023/09/18 00:11:13;;;;;;;;;;;;;;;18.70;69.45;95084.13;4154814;28;20050;-74
2023/09/18 00:13:15;;;;;;;16.08;12.85;;;;;;;18.68;69.58;95083.50;4198528;28;19920;-74
2023/09/18 00:15:16;;;;;;;15.95;13.07;;;;;;;18.70;69.60;95082.28;4197016;28;20048;-75
2023/09/18 00:17:19;;;;;;;17.00;12.82;;;;;;;18.70;69.42;95089.44;4196737;28;20053;-74
2023/09/18 00:19:20;;;;;;;18.85;12.75;;;;;;;18.71;69.42;95083.91;4184547;28;20349;-74
2023/09/18 00:21:25;;;;;;;17.33;13.38;;;;;;;18.69;69.46;95079.81;4189400;28;20080;-74
2023/09/18 00:23:26;;;;;;;15.38;12.60;;;;;;;18.67;69.57;95082.69;4181175;28;20053;-75
2023/09/18 00:25:28;;;;;;;14.93;12.63;;;;;;;18.65;69.56;95086.53;4194611;28;20419;-75
2023/09/18 00:27:30;;;;;;;15.93;12.70;;;;;;;18.61;69.59;95088.78;4164104;28;20099;-77
2023/09/18 00:29:32;;;;;;;16.70;13.10;;;;;;;18.61;69.50;95081.63;4181939;28;20055;-76
2023/09/18 00:31:34;;;;;;;15.18;13.00;;;;;;;18.61;69.56;95086.94;4192121;28;20079;-74
2023/09/18 00:33:35;;;;;;;14.48;12.98;;;;;;;18.61;69.42;95083.47;4195549;28;20474;-76
2023/09/18 00:35:38;;;;;;;15.15;12.93;;;;;;;18.60;69.54;95089.78;4177038;28;20049;-76
2023/09/18 00:37:39;;;;;;;17.77;13.20;;;;;;;18.59;69.46;95088.16;4195605;28;20136;-75
2023/09/18 00:39:42;;;;;;;14.35;12.85;;;;;;;18.57;69.30;95093.66;4196849;28;20051;-75
2023/09/18 00:41:49;;;;;;;14.27;12.07;;;;;;;18.56;69.00;95088.56;4194816;28;20127;-75
2023/09/18 00:43:51;;;;;;;16.58;13.40;;;;;;;18.55;69.56;95093.03;4188041;28;20081;-76
2023/09/18 00:45:52;;;;;;;16.33;13.93;;;;;;;18.55;69.56;95098.34;4175075;28;20103;-74
2023/09/18 00:47:54;;;;;;;16.92;13.13;;;;;;;18.55;69.43;95097.53;4192007;28;20045;-76
2023/09/18 00:49:56;;;;;;;15.80;12.90;;;;;;;18.55;69.67;95092.22;4170063;28;20152;-76
2023/09/18 00:51:58;;;;;;;16.60;13.60;;;;;;;18.53;69.30;95094.25;4190699;28;20102;-75
2023/09/18 00:54:00;;;;;;;16.10;13.40;;;;;;;18.46;69.80;95096.09;4158144;28;20045;-75
2023/09/18 00:56:03;;;;;;;16.48;13.40;;;;;;;18.42;70.01;95098.31;4188475;28;20052;-75
2023/09/18 00:58:06;;;;;;;16.10;13.48;;;;;;;18.41;70.06;95104.59;4192087;28;20504;-75
2023/09/18 01:00:08;;;;;;;15.30;13.80;;;;;;;18.43;70.02;95102.56;4174807;28;20045;-75
2023/09/18 01:02:10;;;;;;;16.13;13.40;;;;;;;18.44;69.99;95104.22;4176806;28;20430;-76
2023/09/18 01:04:13;;;;;;;14.88;13.27;;;;;;;18.42;70.16;95108.91;4192874;28;20601;-74
2023/09/18 01:06:15;;;;;;;16.40;14.27;;;;;;;18.41;70.47;95112.56;4188965;28;20048;-75
2023/09/18 01:08:16;;;;;;;17.27;14.27;;;;;;;18.37;70.42;95111.34;4194946;28;20059;-75
2023/09/18 01:10:19;;;;;;;15.48;13.82;;;;;;;18.39;70.23;95117.25;4191269;28;20102;-75
2023/09/18 01:12:28;;;;;;;17.23;14.50;;;;;;;18.37;70.34;95117.47;4172774;28;20049;-75
2023/09/18 01:15:06;;;;;;;17.20;14.88;;;;;;;18.38;70.30;95111.13;4178837;28;20049;-75
2023/09/18 01:17:10;;;;;;;16.65;14.55;;;;;;;18.35;70.13;95111.53;4183248;28;20083;-75
2023/09/18 01:19:12;;;;;;;17.15;15.35;;;;;;;18.33;70.31;95107.44;4174761;28;20053;-75
2023/09/18 01:21:14;;;;;;;17.05;14.27;;;;;;;18.35;70.33;95106.22;4184222;28;20052;-75
2023/09/18 01:23:16;;;;;;;20.60;15.13;;;;;;;18.37;70.34;95109.50;4187968;28;20122;-76
2023/09/18 01:25:18;;;;;;;20.33;14.20;;;;;;;18.36;70.08;95107.03;4195079;28;20052;-73
2023/09/18 01:27:19;;;;;;;19.70;14.50;;;;;;;18.38;70.20;95107.66;4175093;28;20258;-76
2023/09/18 01:29:21;;;;;;;18.30;14.52;;;;;;;18.34;70.09;95107.22;4175932;28;20108;-74
2023/09/18 01:31:23;;;;;;;16.92;15.05;;;;;;;18.36;70.40;95107.84;4173361;28;20049;-75
2023/09/18 01:33:27;;;;;;;19.42;15.27;;;;;;;18.38;70.27;95105.81;4181623;28;20087;-75
2023/09/18 01:35:31;;;;;;;20.33;15.40;;;;;;;18.39;70.14;95114.59;4189280;28;20094;-74
2023/09/18 01:37:35;;;;;;;17.27;15.48;;;;;;;18.38;70.23;95105.81;4194126;28;20111;-73
2023/09/18 01:39:38;;;;;;;18.33;15.00;;;;;;;18.36;70.22;95102.56;4182340;28;20461;-75
2023/09/18 01:41:40;;;;;;;18.92;15.05;;;;;;;18.38;69.98;95108.47;4175147;28;20053;-75
2023/09/18 01:43:42;;;;;;;16.73;14.82;;;;;;;18.39;70.19;95110.13;4188634;28;20052;-75
2023/09/18 01:45:45;;;;;;;16.73;14.98;;;;;;;18.37;69.94;95109.50;4161974;28;20489;-74
2023/09/18 01:47:46;;;;;;;19.40;15.60;;;;;;;18.38;69.98;95107.66;4180716;28;20063;-75
2023/09/18 01:49:49;;;;;;;18.35;15.32;;;;;;;18.36;69.92;95110.50;4182463;28;20136;-73
2023/09/18 01:51:50;;;;;;;17.45;15.55;;;;;;;18.35;69.95;95102.78;4190709;28;20044;-74
2023/09/18 01:53:53;;;;;;;22.58;16.48;;;;;;;18.34;69.99;95106.41;4189909;28;20051;-76
2023/09/18 01:55:55;;;;;;;18.85;16.20;;;;;;;18.32;70.09;95106.59;4193288;28;20135;-75
2023/09/18 01:57:57;;;;;;;20.45;15.88;;;;;;;18.33;70.32;95108.25;4175143;28;20469;-75
2023/09/18 01:59:58;;;;;;;19.63;15.63;;;;;;;18.33;70.36;95110.91;4188062;28;20045;-75
2023/09/18 02:02:03;;;;;;;19.77;16.92;;;;;;;18.35;70.36;95110.72;4194755;28;20145;-75
2023/09/18 02:04:06;;;;;;;19.52;16.35;;;;;;;18.34;70.40;95106.41;4192986;28;20063;-74
2023/09/18 02:06:27;;;;;;;19.50;15.15;;;;;;;18.36;70.40;95112.34;4192766;28;20134;-74
2023/09/18 02:08:30;;;;;;;17.90;15.02;;;;;;;18.27;70.53;95119.66;4182636;28;20045;-75
2023/09/18 02:10:32;;;;;;;17.80;15.98;;;;;;;18.24;70.78;95113.91;4194932;28;20046;-74
2023/09/18 02:12:33;;;;;;;17.27;15.48;;;;;;;18.21;70.66;95115.94;4173343;28;20095;-75
2023/09/18 02:14:35;;;;;;;19.30;16.20;;;;;;;18.16;70.64;95112.25;4193798;28;20052;-75
2023/09/18 02:16:44;;;;;;;20.42;16.17;;;;;;;18.17;70.84;95111.22;4189016;28;20078;-74
2023/09/18 02:18:46;;;;;;;17.98;15.40;;;;;;;18.13;70.91;95110.81;4157465;28;20183;-74
2023/09/18 02:20:50;;;;;;;23.08;16.55;;;;;;;18.17;70.99;95116.53;4183645;28;20047;-75
2023/09/18 02:22:52;;;;;;;19.75;16.98;;;;;;;18.22;70.87;95116.78;4193993;28;20044;-76
2023/09/18 02:24:54;;;;;;;24.60;17.38;;;;;;;18.22;70.85;95111.47;4191019;28;20498;-76
2023/09/18 02:26:55;;;;;;;20.23;17.35;;;;;;;18.20;70.78;95111.66;4185128;28;20040;-75
2023/09/18 02:28:59;;;;;;;21.70;16.42;;;;;;;18.19;70.69;95114.50;4175930;28;20492;-76
2023/09/18 02:31:02;;;;;;;19.42;15.75;;;;;;;18.18;70.67;95113.69;4173503;28;20082;-75
2023/09/18 02:33:04;;;;;;;18.13;16.07;;;;;;;18.17;70.56;95111.22;4194147;28;20144;-75
2023/09/18 02:35:07;;;;;;;18.27;16.38;;;;;;;18.18;70.91;95120.84;4194541;28;20332;-75
2023/09/18 02:37:09;;;;;;;20.63;17.25;;;;;;;18.16;70.57;95118.38;4198040;28;20049;-75
2023/09/18 02:39:10;;;;;;;18.38;16.50;;;;;;;18.16;70.78;95115.72;4184129;28;20056;-75
2023/09/18 02:41:12;;;;;;;18.13;16.27;;;;;;;18.18;70.61;95100.44;4167825;28;20509;-74
2023/09/18 02:43:14;;;;;;;18.63;16.65;;;;;;;18.21;70.65;95101.88;4194540;28;20048;-75
2023/09/18 02:45:17;;;;;;;20.88;18.60;;;;;;;18.23;70.70;95107.00;4190603;28;20070;-75
2023/09/18 02:47:18;;;;;;;20.90;17.63;;;;;;;18.24;70.71;95105.97;4201055;28;20052;-74
2023/09/18 02:49:20;;;;;;;22.23;17.98;;;;;;;18.27;70.65;95119.66;4187841;28;20098;-75
2023/09/18 02:51:23;;;;;;;22.33;18.38;;;;;;;18.26;70.73;95119.84;4185424;28;20044;-75
2023/09/18 02:53:25;;;;;;;20.20;18.00;;;;;;;18.26;70.64;95117.19;4194056;28;20833;-74
2023/09/18 02:55:27;;;;;;;21.05;17.60;;;;;;;18.24;70.81;95120.06;4184305;28;20049;-73
2023/09/18 02:57:28;;;;;;;20.60;18.40;;;;;;;18.25;70.58;95110.25;4163084;28;20126;-74
2023/09/18 02:59:31;;;;;;;21.40;17.73;;;;;;;18.23;70.72;95118.41;4184314;28;20068;-73
2023/09/18 03:01:33;;;;;;;23.00;19.02;;;;;;;18.17;70.77;95114.69;4191788;28;20037;-73
2023/09/18 03:03:34;;;;;;;20.83;18.15;;;;;;;18.16;71.07;95122.88;4195969;28;20084;-74
2023/09/18 03:05:37;;;;;;;21.35;19.15;;;;;;;18.15;71.09;95114.06;4194043;28;20127;-76
2023/09/18 03:07:38;;;;;;;21.45;19.23;;;;;;;18.14;71.10;95119.59;4178018;28;20475;-74
2023/09/18 03:09:40;;;;;;;21.50;18.63;;;;;;;18.18;71.29;95120.84;4194956;28;20174;-76
2023/09/18 03:11:43;;;;;;;22.55;19.35;;;;;;;18.18;71.41;95123.50;4186662;28;20055;-74
2023/09/18 03:13:46;;;;;;;23.27;19.55;;;;;;;18.15;71.36;95118.56;4184825;28;20130;-75
2023/09/18 03:15:48;;;;;;;22.40;20.02;;;;;;;18.18;71.40;95115.53;4190492;28;20049;-74
2023/09/18 03:17:50;;;;;;;21.98;19.55;;;;;;;18.16;71.30;95112.25;4197980;28;20055;-74
2023/09/18 03:19:52;;;;;;;23.33;20.00;;;;;;;18.21;71.20;95115.13;4191731;28;20091;-74
2023/09/18 03:21:54;;;;;;;24.02;20.17;;;;;;;18.22;71.04;95116.78;4198367;28;20040;-74
2023/09/18 03:23:57;;;;;;;22.15;19.75;;;;;;;18.26;71.19;95109.22;4187288;28;20108;-76
2023/09/18 03:25:59;;;;;;;24.15;19.85;;;;;;;18.27;71.07;95113.53;4196144;28;20428;-75
2023/09/18 03:28:01;;;;;;;20.52;18.33;;;;;;;18.23;70.98;95102.50;4197451;28;20045;-75
2023/09/18 03:30:04;;;;;;;21.50;19.20;;;;;;;18.26;71.14;95107.41;4195462;28;20052;-75
2023/09/18 03:32:06;;;;;;;20.98;18.75;;;;;;;18.25;70.92;95103.13;4196665;28;20068;-76
2023/09/18 03:34:08;;;;;;;21.48;19.25;;;;;;;18.25;70.82;95102.31;4182338;28;20049;-75
2023/09/18 03:36:11;;;;;;;21.58;19.20;;;;;;;18.25;70.84;95105.78;4197753;28;20131;-75
2023/09/18 03:38:13;;;;;;;23.58;19.17;;;;;;;18.23;71.20;95099.84;4196300;28;20514;-78
2023/09/18 03:40:15;;;;;;;21.77;18.40;;;;;;;18.19;70.98;95101.25;4181084;28;20061;-76
2023/09/18 03:42:17;;;;;;;24.52;19.23;;;;;;;18.13;71.18;95099.38;4195029;28;20129;-76
2023/09/18 03:44:19;;;;;;;21.13;18.83;;;;;;;18.15;71.32;95100.00;4194490;28;20052;-71
2023/09/18 03:46:21;;;;;;;21.17;18.33;;;;;;;18.13;71.46;95092.25;4198040;28;20058;-75
2023/09/18 03:48:22;;;;;;;24.77;19.67;;;;;;;18.15;71.49;95094.69;4198646;28;20102;-76
2023/09/18 03:50:24;;;;;;;23.63;18.50;;;;;;;18.09;71.55;95093.66;4199172;28;20262;-76
2023/09/18 03:52:27;;;;;;;25.38;19.40;;;;;;;18.06;71.83;95095.88;4199454;28;20560;-74
2023/09/18 03:54:29;;;;;;;21.85;18.35;;;;;;;18.03;71.68;95093.63;4185858;28;20048;-76
2023/09/18 03:56:31;;;;;;;20.67;18.58;;;;;;;18.01;71.78;95094.63;4196950;28;20083;-78
2023/09/18 03:58:33;;;;;;;21.63;19.05;;;;;;;18.00;71.76;95097.47;4188808;28;20321;-78
2023/09/18 04:00:37;;;;;;;22.30;18.30;;;;;;;17.96;71.78;95093.56;4198350;28;20553;-75
2023/09/18 04:02:39;;;;;;;22.48;19.30;;;;;;;17.96;71.86;95090.91;4187765;28;20147;-76
2023/09/18 04:04:41;;;;;;;20.75;18.52;;;;;;;18.00;71.93;95086.88;4197267;28;20052;-77
2023/09/18 04:06:44;;;;;;;22.67;19.17;;;;;;;18.01;71.73;95093.81;4198904;28;20049;-77
2023/09/18 04:08:46;;;;;;;;;;;;;;;17.99;71.84;95090.53;4197007;28;20488;-77
2023/09/18 04:10:48;;;;;;;22.33;18.77;;;;;;;17.95;72.04;95095.41;4198096;28;19920;-76
2023/09/18 04:12:52;;;;;;;28.33;18.52;;;;;;;17.95;72.07;95090.09;4209188;28;20127;-75
2023/09/18 04:14:54;;;;;;;21.48;19.33;;;;;;;17.97;72.05;95093.38;4199099;28;20052;-76
2023/09/18 04:16:56;;;;;;;20.00;17.88;;;;;;;17.99;71.81;95101.97;4196865;28;20743;-75
2023/09/18 04:18:57;;;;;;;24.17;19.02;;;;;;;17.99;72.01;95107.25;4174693;28;20085;-78
2023/09/18 04:20:59;;;;;;;22.77;20.35;;;;;;;17.96;71.86;95102.38;4193150;28;20045;-77
2023/09/18 04:23:24;;;;;;;24.58;20.88;;;;;;;17.70;72.85;95108.28;4166254;28;20064;-76
2023/09/18 04:25:26;;;;;;;26.23;20.05;;;;;;;17.55;73.51;95113.66;4187650;28;20082;-75
2023/09/18 04:27:28;;;;;;;24.50;20.27;;;;;;;17.57;73.95;95116.09;4198157;28;20534;-76
2023/09/18 04:29:29;;;;;;;23.00;20.63;;;;;;;17.55;73.55;95118.13;4194844;28;20079;-76
2023/09/18 04:31:31;;;;;;;24.23;21.80;;;;;;;17.50;73.87;95115.25;4187389;28;20080;-77
2023/09/18 04:33:33;;;;;;;27.38;21.90;;;;;;;17.56;74.75;95122.44;4194577;28;20055;-75
2023/09/18 04:35:36;;;;;;;23.70;20.38;;;;;;;17.70;74.77;95116.22;4196789;28;20407;-76
2023/09/18 04:37:38;;;;;;;23.27;20.73;;;;;;;17.84;74.31;95114.50;4190347;28;20150;-76
2023/09/18 04:39:40;;;;;;;22.80;20.45;;;;;;;17.96;73.72;95112.13;4177569;28;20307;-77
2023/09/18 04:41:41;;;;;;;24.90;19.80;;;;;;;18.03;72.45;95114.84;4194912;28;20037;-74
2023/09/18 04:43:44;;;;;;;27.33;20.92;;;;;;;18.08;72.27;95115.06;4195531;28;20045;-77
2023/09/18 04:45:46;;;;;;;23.95;20.95;;;;;;;18.11;71.99;95119.97;4193676;28;20052;-78
2023/09/18 04:47:47;;;;;;;24.95;21.73;;;;;;;18.13;71.98;95115.28;4192719;28;20040;-76
2023/09/18 04:49:49;;;;;;;25.63;20.75;;;;;;;18.18;71.83;95120.84;4180866;28;20070;-74
2023/09/18 04:51:51;;;;;;;25.45;21.75;;;;;;;18.21;71.57;95121.25;4191056;28;20040;-76
2023/09/18 04:53:54;;;;;;;26.75;20.55;;;;;;;18.25;71.53;95118.22;4190544;28;20090;-77
2023/09/18 04:55:56;;;;;;;25.00;21.80;;;;;;;18.28;71.36;95120.47;4192370;28;20045;-75
2023/09/18 04:57:59;;;;;;;34.47;22.40;;;;;;;18.32;71.43;95111.09;4185558;28;20155;-76
2023/09/18 05:00:01;;;;;;;23.92;21.38;;;;;;;18.39;71.35;95112.78;4168199;28;20045;-76
2023/09/18 05:02:17;;;;;;;24.73;21.25;;;;;;;18.49;70.88;95111.59;4190682;28;20076;-78
2023/09/18 05:04:19;;;;;;;24.30;21.83;;;;;;;18.56;70.60;95107.13;4192341;28;20083;-76
2023/09/18 05:06:21;;;;;;;25.05;21.75;;;;;;;18.63;70.63;95111.44;4195790;28;20053;-76
2023/09/18 05:08:23;;;;;;;27.95;22.20;;;;;;;18.66;70.19;95107.56;4177609;28;20385;-78
2023/09/18 05:10:26;;;;;;;24.70;21.38;;;;;;;18.66;69.93;95112.06;4190163;28;20057;-76
2023/09/18 05:12:28;;;;;;;25.13;22.35;;;;;;;18.65;69.81;95111.25;4185225;28;20078;-80
2023/09/18 05:14:29;;;;;;;26.05;21.55;;;;;;;18.74;69.90;95110.06;4182360;28;20404;-76
2023/09/18 05:16:31;;;;;;;29.35;22.05;;;;;;;18.82;69.71;95109.91;4180573;28;20064;-78
2023/09/18 05:18:37;;;;;;;26.58;22.15;;;;;;;18.88;68.94;95116.22;4195179;28;20051;-77
2023/09/18 05:20:40;;;;;;;26.27;21.88;;;;;;;18.89;68.81;95125.03;4181803;28;20096;-76
2023/09/18 05:22:45;;;;;;;25.65;22.15;;;;;;;18.89;68.99;95117.06;4168933;28;20103;-76
2023/09/18 05:24:47;;;;;;;26.58;23.02;;;;;;;18.88;69.00;95123.38;4193411;28;20044;-77
2023/09/18 05:26:49;;;;;;;25.45;19.98;;;;;;;18.81;68.66;95126.84;4186405;28;20052;-76
2023/09/18 05:28:51;;;;;;;26.77;22.08;;;;;;;18.63;69.09;95126.56;4195960;28;20060;-76
2023/09/18 05:30:53;;;;;;;24.45;21.88;;;;;;;18.48;69.93;95136.50;4190045;28;21186;-76
2023/09/18 05:32:55;;;;;;;26.85;22.95;;;;;;;18.32;70.49;95130.47;4192671;28;20052;-77
2023/09/18 05:35:01;;;;;;;27.05;22.55;;;;;;;18.17;71.12;95129.78;4187339;28;20134;-77
2023/09/18 05:37:04;;;;;;;31.85;22.50;;;;;;;18.15;71.38;95131.81;4192205;28;20048;-78
2023/09/18 05:39:11;;;;;;;30.35;23.45;;;;;;;18.29;71.30;95128.22;4182456;28;20085;-78
2023/09/18 05:41:13;;;;;;;28.85;24.10;;;;;;;18.42;70.85;95128.28;4191251;28;20120;-77
2023/09/18 05:43:14;;;;;;;28.58;23.70;;;;;;;18.57;70.56;95130.81;4194610;28;20060;-75
2023/09/18 05:45:16;;;;;;;28.02;23.65;;;;;;;18.73;69.89;95128.81;4175377;28;20155;-76
2023/09/18 05:47:18;;;;;;;31.10;24.40;;;;;;;18.70;69.66;95124.72;4188390;28;20101;-77
2023/09/18 05:49:20;;;;;;;36.97;24.42;;;;;;;18.76;69.83;95125.78;4190794;28;20044;-77
2023/09/18 05:51:22;;;;;;;30.52;24.02;;;;;;;18.85;69.49;95134.41;4197861;28;20056;-75
2023/09/18 05:53:24;;;;;;;25.25;22.50;;;;;;;18.76;68.96;95133.75;4193899;28;20056;-77
2023/09/18 05:55:29;;;;;;;27.05;24.20;;;;;;;18.86;69.40;95136.03;4189167;28;20053;-75
2023/09/18 05:57:31;;;;;;;26.58;22.40;;;;;;;18.82;69.04;95139.09;4174329;28;20496;-76
2023/09/18 05:59:33;;;;;;;31.90;22.95;;;;;;;18.93;68.81;95132.41;4181652;28;20527;-77
2023/09/18 06:01:35;;;;;;;27.15;23.55;;;;;;;18.91;68.65;95138.94;4195007;28;20036;-77
2023/09/18 06:03:37;;;;;;;29.52;24.48;;;;;;;18.97;68.96;95130.13;4194169;28;20048;-77
2023/09/18 06:05:39;;;;;;;26.73;23.25;;;;;;;19.08;68.92;95134.03;4194143;28;20056;-76
2023/09/18 06:07:41;;;;;;;29.58;23.42;;;;;;;19.22;68.59;95128.56;4194583;28;20056;-77
2023/09/18 06:09:43;;;;;;;29.45;22.80;;;;;;;19.26;68.41;95133.50;4204002;28;20135;-78
2023/09/18 06:11:45;;;;;;;29.10;22.75;;;;;;;19.32;67.79;95127.38;4196428;28;20487;-78
2023/09/18 06:13:47;;;;;;;26.15;21.38;;;;;;;19.42;67.59;95128.59;4195321;28;20109;-75
2023/09/18 06:15:48;;;;;;;27.50;21.67;;;;;;;19.51;66.96;95131.03;4191912;28;20060;-76
2023/09/18 06:17:50;;;;;;;25.58;22.17;;;;;;;19.50;67.36;95130.22;4194749;28;20052;-75
2023/09/18 06:19:52;;;;;;;30.17;22.83;;;;;;;19.54;67.38;95136.78;4189852;28;20121;-77
2023/09/18 06:21:54;;;;;;;25.90;20.75;;;;;;;19.59;66.76;95131.66;4184107;28;20516;-76
2023/09/18 06:23:56;;;;;;;24.52;21.70;;;;;;;19.71;66.55;95142.53;4187734;28;20045;-75
2023/09/18 06:25:59;;;;;;;24.65;21.67;;;;;;;19.78;66.13;95131.91;4194899;28;20059;-77
2023/09/18 06:28:03;;;;;;;27.73;22.30;;;;;;;19.89;66.04;95133.91;4172449;28;20513;-78
2023/09/18 06:30:05;;;;;;;;;;;;;;;19.95;65.60;95141.06;4173433;28;20136;-75
2023/09/18 06:32:07;;;;;;;25.83;22.02;;;;;;;20.05;65.41;95143.34;4189229;28;19928;-78
2023/09/18 06:34:09;;;;;;;26.50;21.17;;;;;;;20.12;65.23;95141.47;4189577;28;20088;-76
2023/09/18 06:36:10;;;;;;;28.45;22.92;;;;;;;20.20;64.84;95135.13;4188878;28;20079;-79
2023/09/18 06:38:12;;;;;;;22.90;20.60;;;;;;;20.24;64.75;95141.63;4191855;28;20121;-79
2023/09/18 06:40:14;;;;;;;25.70;21.73;;;;;;;20.32;64.59;95140.59;4194861;28;20484;-76
2023/09/18 06:42:16;;;;;;;24.52;20.55;;;;;;;20.36;64.57;95139.97;4188650;28;20423;-77
2023/09/18 06:44:17;;;;;;;26.92;20.90;;;;;;;20.44;64.26;95133.63;4189843;28;20053;-78
2023/09/18 06:46:19;;;;;;;24.58;20.50;;;;;;;20.50;63.96;95142.59;4192425;28;20518;-74
2023/09/18 06:48:24;;;;;;;25.75;21.17;;;;;;;20.61;63.39;95131.34;4189923;28;20396;-76
2023/09/18 06:50:26;;;;;;;26.75;21.50;;;;;;;20.71;63.13;95134.34;4192330;28;20481;-79
2023/09/18 06:52:29;;;;;;;27.83;21.80;;;;;;;20.83;62.99;95138.00;4194650;28;20113;-77
2023/09/18 06:54:30;;;;;;;23.13;20.58;;;;;;;20.97;62.65;95137.91;4180187;28;20162;-77
2023/09/18 06:56:32;;;;;;;27.45;20.75;;;;;;;21.00;62.40;95135.66;4184324;28;20178;-78
2023/09/18 06:58:34;;;;;;;28.17;20.77;;;;;;;20.99;62.07;95134.03;4181787;28;20147;-78
2023/09/18 07:00:36;;;;;;;26.88;20.77;;;;;;;20.99;61.93;95133.19;4172403;28;20469;-77
2023/09/18 07:02:38;;;;;;;29.77;20.40;;;;;;;21.05;62.02;95135.81;4182989;28;20073;-76
2023/09/18 07:04:44;;;;;;;23.58;21.13;;;;;;;21.03;62.03;95131.75;4182889;28;20062;-76
2023/09/18 07:06:47;;;;;;;26.52;21.63;;;;;;;20.98;62.01;95134.25;4173325;28;20126;-75
2023/09/18 07:08:49;;;;;;;23.00;20.27;;;;;;;20.73;62.33;95137.63;4192669;28;20060;-76
2023/09/18 07:10:52;;;;;;;22.63;20.05;;;;;;;20.56;63.50;95128.44;4188073;28;20048;-76
2023/09/18 07:12:54;;;;;;;21.67;19.20;;;;;;;20.60;63.39;95130.50;4184081;28;20885;-76
2023/09/18 07:14:55;;;;;;;21.63;18.27;;;;;;;20.18;63.55;95124.69;4193342;28;20090;-75
2023/09/18 07:16:57;;;;;;;22.05;18.42;;;;;;;20.25;63.84;95127.31;4179406;28;20056;-76
2023/09/18 07:18:59;;;;;;;21.05;18.13;;;;;;;20.34;63.81;95127.91;4177796;28;20045;-77
2023/09/18 07:21:01;;;;;;;21.52;16.85;;;;;;;20.36;64.01;95125.88;4187949;28;20484;-77
2023/09/18 07:23:03;;;;;;;20.67;18.05;;;;;;;20.61;63.24;95136.66;4175390;28;20057;-75
2023/09/18 07:25:06;;;;;;;19.05;17.05;;;;;;;20.89;62.63;95138.16;4193483;28;20045;-74
2023/09/18 07:27:08;;;;;;;21.00;17.13;;;;;;;20.78;61.78;95136.97;4178216;28;20414;-76
2023/09/18 07:29:10;;;;;;;23.33;17.92;;;;;;;20.65;62.75;95128.03;4179413;28;20045;-75
2023/09/18 07:31:12;;;;;;;22.00;17.70;;;;;;;20.76;62.72;95137.22;4190240;28;20488;-78
2023/09/18 07:33:18;;;;;;;20.70;17.88;;;;;;;20.94;61.91;95141.03;4188313;28;20056;-79
2023/09/18 07:35:22;;;;;;;20.52;17.98;;;;;;;21.13;61.00;95134.78;4185021;28;20081;-77
2023/09/18 07:37:24;;;;;;;17.65;15.27;;;;;;;20.88;60.73;95136.53;4173699;28;20131;-77
2023/09/18 07:39:26;;;;;;;20.55;17.40;;;;;;;20.72;62.01;95135.19;4190932;28;20135;-75
2023/09/18 07:41:32;;;;;;;20.35;16.95;;;;;;;20.91;61.91;95138.75;4192281;28;20049;-77
2023/09/18 07:43:33;;;;;;;18.80;16.80;;;;;;;21.01;61.90;95131.94;4190850;28;20079;-77
2023/09/18 07:45:38;;;;;;;19.45;17.38;;;;;;;21.27;61.21;95133.66;4191723;28;20056;-76
2023/09/18 07:47:40;;;;;;;20.35;16.40;;;;;;;21.27;60.72;95131.00;4188458;28;20107;-75
2023/09/18 07:49:42;;;;;;;25.65;18.02;;;;;;;21.25;60.93;95130.41;4182922;28;20056;-77
2023/09/18 07:51:44;;;;;;;26.08;19.27;;;;;;;21.52;60.21;95135.56;4195232;28;20362;-75
2023/09/18 07:53:46;;;;;;;18.95;16.85;;;;;;;21.71;59.89;95136.44;4196953;28;20076;-76
2023/09/18 07:55:56;;;;;;;21.65;17.08;;;;;;;21.89;59.30;95133.81;4168583;28;20049;-76
2023/09/18 07:57:59;;;;;;;16.85;14.88;;;;;;;21.98;58.66;95133.53;4175886;28;20045;-77
2023/09/18 08:00:12;;;;;;;18.52;16.25;;;;;;;22.07;58.09;95125.03;4183591;28;20061;-78
2023/09/18 08:02:13;;;;;;;21.02;16.13;;;;;;;21.83;58.30;95125.88;4195501;28;20044;-77
2023/09/18 08:04:15;;;;;;;20.08;16.52;;;;;;;21.42;59.58;95130.72;4195574;28;20048;-77
2023/09/18 08:06:19;;;;;;;16.30;14.50;;;;;;;21.51;59.43;95131.28;4183651;28;20040;-76
2023/09/18 08:08:22;;;;;;;19.15;14.43;;;;;;;21.75;58.45;95126.16;4193022;28;20499;-77
2023/09/18 08:10:24;;;;;;;;;;;;;;;22.01;57.76;95128.59;4164442;28;20049;-79
2023/09/18 08:12:26;;;;;;;24.15;16.77;;;;;;;22.15;57.41;95126.59;4178876;28;20036;-76
2023/09/18 08:14:28;;;;;;;19.25;16.67;;;;;;;22.17;57.63;95123.72;4190175;28;20099;-77
2023/09/18 08:16:30;;;;;;;19.80;15.63;;;;;;;22.11;57.66;95120.06;4183472;28;20349;-77
2023/09/18 08:18:31;;;;;;;23.90;17.95;;;;;;;22.16;57.60;95122.91;4193615;28;20567;-77
2023/09/18 08:20:34;;;;;;;17.13;15.32;;;;;;;22.32;57.38;95121.53;4163479;28;20080;-76
2023/09/18 08:22:37;;;;;;;19.23;16.08;;;;;;;22.14;57.26;95121.50;4192459;28;20433;-77
2023/09/18 08:24:38;;;;;;;18.23;15.30;;;;;;;21.95;57.85;95118.00;4197849;28;20063;-76
2023/09/18 08:26:40;;;;;;;19.45;16.58;;;;;;;21.72;58.29;95110.59;4202938;28;20112;-78
2023/09/18 08:28:43;;;;;;;19.42;16.85;;;;;;;21.58;58.86;95112.56;4184840;28;20271;-78
2023/09/18 08:30:47;;;;;;;22.98;16.40;;;;;;;21.58;59.07;95109.91;4198077;28;20052;-77
2023/09/18 08:32:48;;;;;;;20.35;15.80;;;;;;;21.79;58.50;95111.34;4198335;28;20044;-77
2023/09/18 08:34:50;;;;;;;20.13;16.20;;;;;;;22.07;57.85;95109.03;4181081;28;20452;-79
2023/09/18 08:36:53;;;;;;;24.80;18.40;;;;;;;22.40;56.82;95110.56;4185019;28;20048;-76
2023/09/18 08:38:54;;;;;;;16.92;15.23;;;;;;;22.37;56.33;95110.19;4195110;28;20459;-77
2023/09/18 08:40:57;;;;;;;18.58;16.67;;;;;;;22.48;56.46;95099.59;4195561;28;20502;-76
2023/09/18 08:43:00;;;;;;;19.47;16.17;;;;;;;22.64;55.84;95102.69;4184895;28;20384;-76
2023/09/18 08:45:07;;;;;;;17.00;14.40;;;;;;;22.65;55.77;95102.47;4166231;28;20049;-80
2023/09/18 08:47:10;;;;;;;17.83;15.25;;;;;;;22.73;55.44;95095.19;4192434;28;20223;-74
2023/09/18 08:49:13;;;;;;;16.40;14.32;;;;;;;22.60;55.89;95096.16;4189824;28;20052;-75
2023/09/18 08:51:16;;;;;;;22.33;14.98;;;;;;;22.75;55.50;95095.78;4194427;28;20475;-75
2023/09/18 08:53:17;;;;;;;18.70;15.38;;;;;;;22.97;55.10;95083.53;4178579;28;20064;-77
2023/09/18 08:55:20;;;;;;;20.13;14.18;;;;;;;23.24;54.50;95081.34;4199348;28;20052;-74
2023/09/18 08:57:23;;;;;;;18.33;14.13;;;;;;;23.24;53.92;95088.56;4186281;28;20114;-77
2023/09/18 08:59:25;;;;;;;16.43;14.70;;;;;;;23.42;53.93;95087.66;4194710;28;20048;-75
2023/09/18 09:01:27;;;;;;;22.20;14.70;;;;;;;23.58;53.26;95086.19;4195113;28;20128;-75
2023/09/18 09:03:29;;;;;;;17.70;14.30;;;;;;;23.59;52.89;95093.97;4194414;28;20106;-75
2023/09/18 09:05:32;;;;;;;19.67;13.65;;;;;;;23.62;52.47;95087.34;4193654;28;20052;-76
2023/09/18 09:07:33;;;;;;;15.77;13.13;;;;;;;23.72;52.54;95082.22;4168798;28;20096;-76
2023/09/18 09:09:35;;;;;;;18.75;13.45;;;;;;;23.88;52.58;95086.94;4176671;28;20119;-76
2023/09/18 09:11:37;;;;;;;23.05;15.00;;;;;;;24.12;52.05;95085.06;4195582;28;20398;-76
2023/09/18 09:13:39;;;;;;;18.58;14.20;;;;;;;24.27;51.93;95087.25;4184910;28;21083;-76
2023/09/18 09:15:49;;;;;;;18.08;14.43;;;;;;;24.36;51.13;95085.03;4175178;28;20049;-76
2023/09/18 09:17:53;;;;;;;17.63;14.63;;;;;;;24.52;51.15;95081.66;4177604;28;20072;-74
2023/09/18 09:20:08;;;;;;;16.92;13.98;;;;;;;24.14;50.73;95074.13;4188307;28;20060;-74
2023/09/18 09:22:20;;;;;;;13.45;12.05;;;;;;;24.18;50.54;95063.75;4174365;28;20198;-73
2023/09/18 09:24:41;;;;;;;15.35;13.00;;;;;;;24.25;50.64;95070.59;4189110;28;20429;-75
2023/09/18 09:26:43;;;;;;;14.27;12.05;;;;;;;24.09;50.62;95072.16;4190136;28;20040;-76